KDAY Airport Diagram

We have created a template for each of the higher traffic airports in the vZID airspace. They include KCMH, KCRW, KCVG, KDAY, KIND, KLEX and KSDF. You wil find usefull information including the airport diagram, weather, and specific airport procedures.

KDAY Weather

[Source: ADDS]
METAR
KDAY 300156Z 07014KT 10SM BKN100 OVC250 11/04 A3008 RMK AO2 SLP188 T01110044 =
TAF
KDAY 292339Z 3000/3024 08010KT P6SM SCT100 BKN250 FM301000 08010KT P6SM BKN050 OVC100 FM301600 18014G26KT P6SM BKN070 OVC250 FM302300 18010KT P6SM BKN070 OVC250 =

DAY Operations

Calm Wind Configuration is runways 24L and 24R

Runway 24L typically departs south and west

Runway 24R typicall departs north and east

 

JSN Epic template designed by JoomlaShine.com